sensor_id;sensor_type;location;lat;lon;timestamp;temperature;humidity
24232;DHT22;12364;47.810;8.810;2023-08-12T04:32:25;22.70;94.10
24232;DHT22;12364;47.810;8.810;2023-08-12T04:34:52;22.70;94.10
24232;DHT22;12364;47.810;8.810;2023-08-12T04:37:19;22.80;94.20
24232;DHT22;12364;47.810;8.810;2023-08-12T04:39:46;22.70;94.00
24232;DHT22;12364;47.810;8.810;2023-08-12T04:42:14;22.70;94.10
24232;DHT22;12364;47.810;8.810;2023-08-12T04:44:41;22.70;94.00
24232;DHT22;12364;47.810;8.810;2023-08-12T04:47:08;22.70;94.10
24232;DHT22;12364;47.810;8.810;2023-08-12T04:49:35;22.70;94.10
24232;DHT22;12364;47.810;8.810;2023-08-12T04:52:03;22.70;94.10
24232;DHT22;12364;47.810;8.810;2023-08-12T04:54:30;22.80;94.20
24232;DHT22;12364;47.810;8.810;2023-08-12T04:56:57;22.70;94.30
24232;DHT22;12364;47.810;8.810;2023-08-12T04:59:24;22.70;94.20
24232;DHT22;12364;47.810;8.810;2023-08-12T05:01:51;22.70;94.20
24232;DHT22;12364;47.810;8.810;2023-08-12T05:04:31;22.70;94.30
24232;DHT22;12364;47.810;8.810;2023-08-12T05:06:58;22.80;94.30
24232;DHT22;12364;47.810;8.810;2023-08-12T05:09:25;22.70;94.30
24232;DHT22;12364;47.810;8.810;2023-08-12T05:11:52;22.80;94.40
24232;DHT22;12364;47.810;8.810;2023-08-12T05:14:19;22.70;94.40
24232;DHT22;12364;47.810;8.810;2023-08-12T05:16:46;22.70;94.50
24232;DHT22;12364;47.810;8.810;2023-08-12T05:19:13;22.70;94.50
24232;DHT22;12364;47.810;8.810;2023-08-12T05:21:40;22.80;94.60
24232;DHT22;12364;47.810;8.810;2023-08-12T05:24:07;22.80;94.50
24232;DHT22;12364;47.810;8.810;2023-08-12T05:26:34;22.80;94.60
24232;DHT22;12364;47.810;8.810;2023-08-12T05:29:01;22.80;94.90
24232;DHT22;12364;47.810;8.810;2023-08-12T05:31:29;22.80;94.70
24232;DHT22;12364;47.810;8.810;2023-08-12T05:33:56;22.80;94.60
24232;DHT22;12364;47.810;8.810;2023-08-12T05:36:23;22.80;94.70
24232;DHT22;12364;47.810;8.810;2023-08-12T05:38:50;22.90;94.70
24232;DHT22;12364;47.810;8.810;2023-08-12T05:41:17;22.90;94.70
24232;DHT22;12364;47.810;8.810;2023-08-12T05:43:44;23.00;94.80
24232;DHT22;12364;47.810;8.810;2023-08-12T05:46:11;23.00;94.70
24232;DHT22;12364;47.810;8.810;2023-08-12T05:48:38;23.10;94.90
24232;DHT22;12364;47.810;8.810;2023-08-12T05:51:05;23.10;95.00
24232;DHT22;12364;47.810;8.810;2023-08-12T05:53:32;23.20;95.10
24232;DHT22;12364;47.810;8.810;2023-08-12T05:56:00;23.10;95.20
24232;DHT22;12364;47.810;8.810;2023-08-12T05:58:27;23.10;95.20
24232;DHT22;12364;47.810;8.810;2023-08-12T06:00:54;23.20;95.40
24232;DHT22;12364;47.810;8.810;2023-08-12T06:03:21;23.20;95.30
24232;DHT22;12364;47.810;8.810;2023-08-12T06:05:48;23.30;95.20
24232;DHT22;12364;47.810;8.810;2023-08-12T06:08:16;23.30;95.20
24232;DHT22;12364;47.810;8.810;2023-08-12T06:10:43;23.30;95.00
24232;DHT22;12364;47.810;8.810;2023-08-12T06:13:10;23.30;95.20
24232;DHT22;12364;47.810;8.810;2023-08-12T06:15:37;23.40;95.20
24232;DHT22;12364;47.810;8.810;2023-08-12T06:18:04;23.40;95.40
24232;DHT22;12364;47.810;8.810;2023-08-12T06:20:31;23.50;95.10
24232;DHT22;12364;47.810;8.810;2023-08-12T06:22:58;23.50;95.00
24232;DHT22;12364;47.810;8.810;2023-08-12T06:25:25;23.60;95.10
24232;DHT22;12364;47.810;8.810;2023-08-12T06:27:52;23.60;94.80
24232;DHT22;12364;47.810;8.810;2023-08-12T06:30:19;23.70;94.70
24232;DHT22;12364;47.810;8.810;2023-08-12T06:32:46;23.70;94.60
24232;DHT22;12364;47.810;8.810;2023-08-12T06:35:13;23.80;94.60
24232;DHT22;12364;47.810;8.810;2023-08-12T06:37:40;23.80;94.70
24232;DHT22;12364;47.810;8.810;2023-08-12T06:40:08;23.80;94.50
24232;DHT22;12364;47.810;8.810;2023-08-12T06:42:35;23.80;94.30
24232;DHT22;12364;47.810;8.810;2023-08-12T06:45:03;23.80;94.50
24232;DHT22;12364;47.810;8.810;2023-08-12T06:47:31;23.90;94.80
24232;DHT22;12364;47.810;8.810;2023-08-12T06:49:58;23.90;94.60
24232;DHT22;12364;47.810;8.810;2023-08-12T06:52:25;24.00;94.70
24232;DHT22;12364;47.810;8.810;2023-08-12T06:54:52;24.10;94.50
24232;DHT22;12364;47.810;8.810;2023-08-12T06:57:19;24.10;94.30
24232;DHT22;12364;47.810;8.810;2023-08-12T06:59:46;24.20;94.20
24232;DHT22;12364;47.810;8.810;2023-08-12T07:02:13;24.20;94.20
24232;DHT22;12364;47.810;8.810;2023-08-12T07:04:40;24.30;94.20
24232;DHT22;12364;47.810;8.810;2023-08-12T07:07:08;24.30;94.10
24232;DHT22;12364;47.810;8.810;2023-08-12T07:09:35;24.40;94.00
24232;DHT22;12364;47.810;8.810;2023-08-12T07:12:02;24.40;93.70
24232;DHT22;12364;47.810;8.810;2023-08-12T07:14:29;24.50;93.80
24232;DHT22;12364;47.810;8.810;2023-08-12T07:16:56;24.50;93.90
24232;DHT22;12364;47.810;8.810;2023-08-12T07:19:23;24.60;93.80
24232;DHT22;12364;47.810;8.810;2023-08-12T07:21:50;24.60;93.80
24232;DHT22;12364;47.810;8.810;2023-08-12T07:24:17;24.70;93.80
24232;DHT22;12364;47.810;8.810;2023-08-12T07:26:45;24.70;93.80
24232;DHT22;12364;47.810;8.810;2023-08-12T07:29:12;24.80;93.80
24232;DHT22;12364;47.810;8.810;2023-08-12T07:31:39;24.90;93.60
24232;DHT22;12364;47.810;8.810;2023-08-12T07:34:06;25.00;93.60
24232;DHT22;12364;47.810;8.810;2023-08-12T07:36:33;25.00;93.50
24232;DHT22;12364;47.810;8.810;2023-08-12T07:39:00;25.00;93.50
24232;DHT22;12364;47.810;8.810;2023-08-12T07:41:27;25.10;93.50
24232;DHT22;12364;47.810;8.810;2023-08-12T07:43:54;25.10;93.50
24232;DHT22;12364;47.810;8.810;2023-08-12T07:46:21;25.10;93.70
24232;DHT22;12364;47.810;8.810;2023-08-12T07:48:49;25.20;93.50
24232;DHT22;12364;47.810;8.810;2023-08-12T07:51:16;25.30;93.80
24232;DHT22;12364;47.810;8.810;2023-08-12T07:53:43;25.30;93.80
24232;DHT22;12364;47.810;8.810;2023-08-12T07:56:10;25.30;93.80
24232;DHT22;12364;47.810;8.810;2023-08-12T07:58:37;25.40;93.70
24232;DHT22;12364;47.810;8.810;2023-08-12T08:01:04;25.40;93.60
24232;DHT22;12364;47.810;8.810;2023-08-12T08:03:32;25.50;93.70
24232;DHT22;12364;47.810;8.810;2023-08-12T08:05:59;25.40;94.40
24232;DHT22;12364;47.810;8.810;2023-08-12T08:08:26;25.40;95.10
24232;DHT22;12364;47.810;8.810;2023-08-12T08:10:53;25.40;95.20
24232;DHT22;12364;47.810;8.810;2023-08-12T08:13:20;25.50;95.80
24232;DHT22;12364;47.810;8.810;2023-08-12T08:15:47;25.50;95.80
24232;DHT22;12364;47.810;8.810;2023-08-12T08:18:13;25.50;95.50
24232;DHT22;12364;47.810;8.810;2023-08-12T08:20:43;25.50;95.90
24232;DHT22;12364;47.810;8.810;2023-08-12T08:23:12;25.60;95.20
24232;DHT22;12364;47.810;8.810;2023-08-12T08:25:39;25.60;95.20
24232;DHT22;12364;47.810;8.810;2023-08-12T08:28:06;25.60;95.50
24232;DHT22;12364;47.810;8.810;2023-08-12T08:30:33;25.70;95.20
24232;DHT22;12364;47.810;8.810;2023-08-12T08:33:00;25.70;95.30
24232;DHT22;12364;47.810;8.810;2023-08-12T08:35:27;25.70;95.50
24232;DHT22;12364;47.810;8.810;2023-08-12T08:37:54;25.70;95.40
24232;DHT22;12364;47.810;8.810;2023-08-12T08:40:21;25.70;95.50
24232;DHT22;12364;47.810;8.810;2023-08-12T08:42:51;25.70;95.80
24232;DHT22;12364;47.810;8.810;2023-08-12T08:45:20;25.80;95.90
24232;DHT22;12364;47.810;8.810;2023-08-12T08:47:47;25.80;96.00
24232;DHT22;12364;47.810;8.810;2023-08-12T08:50:15;25.80;96.30
24232;DHT22;12364;47.810;8.810;2023-08-12T08:52:42;25.90;95.90
24232;DHT22;12364;47.810;8.810;2023-08-12T08:55:10;25.90;95.40
24232;DHT22;12364;47.810;8.810;2023-08-12T08:57:39;26.00;95.40
24232;DHT22;12364;47.810;8.810;2023-08-12T09:00:17;26.00;95.30
24232;DHT22;12364;47.810;8.810;2023-08-12T09:02:47;26.10;95.30
24232;DHT22;12364;47.810;8.810;2023-08-12T09:05:16;26.10;95.30
24232;DHT22;12364;47.810;8.810;2023-08-12T09:07:44;26.10;95.40
24232;DHT22;12364;47.810;8.810;2023-08-12T09:10:11;26.10;95.20
24232;DHT22;12364;47.810;8.810;2023-08-12T09:12:42;26.20;95.00
24232;DHT22;12364;47.810;8.810;2023-08-12T09:15:09;26.20;95.00
24232;DHT22;12364;47.810;8.810;2023-08-12T09:17:36;26.20;95.20
24232;DHT22;12364;47.810;8.810;2023-08-12T09:20:03;26.20;95.10
24232;DHT22;12364;47.810;8.810;2023-08-12T09:22:35;26.20;95.20
24232;DHT22;12364;47.810;8.810;2023-08-12T09:25:02;26.30;95.50
24232;DHT22;12364;47.810;8.810;2023-08-12T09:27:31;26.30;95.60
24232;DHT22;12364;47.810;8.810;2023-08-12T09:29:59;26.40;95.00
24232;DHT22;12364;47.810;8.810;2023-08-12T09:32:29;26.40;94.40
24232;DHT22;12364;47.810;8.810;2023-08-12T09:34:56;26.60;94.30
24232;DHT22;12364;47.810;8.810;2023-08-12T09:37:23;26.60;94.40
24232;DHT22;12364;47.810;8.810;2023-08-12T09:39:51;26.70;94.20
24232;DHT22;12364;47.810;8.810;2023-08-12T09:42:18;26.70;93.90
24232;DHT22;12364;47.810;8.810;2023-08-12T09:44:45;26.80;93.80
24232;DHT22;12364;47.810;8.810;2023-08-12T09:47:13;26.80;94.20
24232;DHT22;12364;47.810;8.810;2023-08-12T09:49:41;26.80;94.00
24232;DHT22;12364;47.810;8.810;2023-08-12T09:52:08;26.80;93.60
24232;DHT22;12364;47.810;8.810;2023-08-12T09:54:35;26.80;93.50
24232;DHT22;12364;47.810;8.810;2023-08-12T09:57:05;26.80;93.50
24232;DHT22;12364;47.810;8.810;2023-08-12T09:59:34;26.80;93.40
24232;DHT22;12364;47.810;8.810;2023-08-12T10:02:02;26.80;93.70
24232;DHT22;12364;47.810;8.810;2023-08-12T10:04:39;26.90;93.80
24232;DHT22;12364;47.810;8.810;2023-08-12T10:07:08;26.80;93.90
24232;DHT22;12364;47.810;8.810;2023-08-12T10:09:36;26.80;93.40
24232;DHT22;12364;47.810;8.810;2023-08-12T10:12:05;26.90;93.60
24232;DHT22;12364;47.810;8.810;2023-08-12T10:14:32;26.90;93.50
24232;DHT22;12364;47.810;8.810;2023-08-12T10:17:00;26.90;93.70
24232;DHT22;12364;47.810;8.810;2023-08-12T10:19:32;27.00;93.50
24232;DHT22;12364;47.810;8.810;2023-08-12T10:22:00;27.00;93.60
24232;DHT22;12364;47.810;8.810;2023-08-12T10:24:29;27.10;93.60
24232;DHT22;12364;47.810;8.810;2023-08-12T10:26:56;27.10;93.60
24232;DHT22;12364;47.810;8.810;2023-08-12T10:29:23;27.20;93.50
24232;DHT22;12364;47.810;8.810;2023-08-12T10:31:51;27.10;93.50
24232;DHT22;12364;47.810;8.810;2023-08-12T10:34:22;27.10;93.30
24232;DHT22;12364;47.810;8.810;2023-08-12T10:36:55;27.10;93.80
24232;DHT22;12364;47.810;8.810;2023-08-12T10:39:31;27.10;94.20
24232;DHT22;12364;47.810;8.810;2023-08-12T10:41:59;27.00;94.40
24232;DHT22;12364;47.810;8.810;2023-08-12T10:44:27;26.90;94.70
24232;DHT22;12364;47.810;8.810;2023-08-12T10:46:54;26.80;95.00
24232;DHT22;12364;47.810;8.810;2023-08-12T10:49:21;26.80;95.20
24232;DHT22;12364;47.810;8.810;2023-08-12T10:51:52;26.90;95.60
24232;DHT22;12364;47.810;8.810;2023-08-12T11:02:18;26.90;95.40
24232;DHT22;12364;47.810;8.810;2023-08-12T11:04:52;26.90;95.20
24232;DHT22;12364;47.810;8.810;2023-08-12T11:07:27;26.80;95.50
24232;DHT22;12364;47.810;8.810;2023-08-12T11:09:58;26.80;94.50
24232;DHT22;12364;47.810;8.810;2023-08-12T11:12:35;26.80;95.10
24232;DHT22;12364;47.810;8.810;2023-08-12T11:15:03;26.80;95.30
24232;DHT22;12364;47.810;8.810;2023-08-12T11:20:02;27.00;95.40
24232;DHT22;12364;47.810;8.810;2023-08-12T11:22:31;27.10;95.50
24232;DHT22;12364;47.810;8.810;2023-08-12T11:24:59;27.10;94.90
24232;DHT22;12364;47.810;8.810;2023-08-12T11:27:26;27.20;95.50
24232;DHT22;12364;47.810;8.810;2023-08-12T11:29:53;27.20;94.90
24232;DHT22;12364;47.810;8.810;2023-08-12T11:32:20;27.20;94.80
24232;DHT22;12364;47.810;8.810;2023-08-12T11:34:47;27.20;94.60
24232;DHT22;12364;47.810;8.810;2023-08-12T11:37:15;27.30;94.70
24232;DHT22;12364;47.810;8.810;2023-08-12T11:39:42;27.30;94.50
24232;DHT22;12364;47.810;8.810;2023-08-12T11:42:09;27.20;94.80
24232;DHT22;12364;47.810;8.810;2023-08-12T11:44:36;27.20;94.50
24232;DHT22;12364;47.810;8.810;2023-08-12T11:47:03;27.20;94.50
24232;DHT22;12364;47.810;8.810;2023-08-12T11:49:30;27.20;94.50
24232;DHT22;12364;47.810;8.810;2023-08-12T11:51:57;27.30;94.20
24232;DHT22;12364;47.810;8.810;2023-08-12T11:54:24;27.20;94.10
24232;DHT22;12364;47.810;8.810;2023-08-12T11:56:54;27.30;93.90
24232;DHT22;12364;47.810;8.810;2023-08-12T11:59:23;27.40;93.70
24232;DHT22;12364;47.810;8.810;2023-08-12T12:01:51;27.40;93.80
24232;DHT22;12364;47.810;8.810;2023-08-12T12:04:20;27.40;93.60
24232;DHT22;12364;47.810;8.810;2023-08-12T12:06:47;27.50;93.40
24232;DHT22;12364;47.810;8.810;2023-08-12T12:09:15;27.50;93.20
24232;DHT22;12364;47.810;8.810;2023-08-12T12:11:44;27.50;93.10
24232;DHT22;12364;47.810;8.810;2023-08-12T12:14:11;27.50;93.10
24232;DHT22;12364;47.810;8.810;2023-08-12T12:19:21;27.40;92.30
24232;DHT22;12364;47.810;8.810;2023-08-12T12:21:50;27.30;92.30
24232;DHT22;12364;47.810;8.810;2023-08-12T12:24:17;27.20;92.20
24232;DHT22;12364;47.810;8.810;2023-08-12T12:26:45;27.20;92.60
24232;DHT22;12364;47.810;8.810;2023-08-12T12:29:13;27.40;92.20
24232;DHT22;12364;47.810;8.810;2023-08-12T12:31:41;27.40;92.20
24232;DHT22;12364;47.810;8.810;2023-08-12T12:34:08;27.50;92.10
24232;DHT22;12364;47.810;8.810;2023-08-12T12:36:38;27.50;92.00
24232;DHT22;12364;47.810;8.810;2023-08-12T12:39:06;27.60;91.70
24232;DHT22;12364;47.810;8.810;2023-08-12T12:41:33;27.60;91.60
24232;DHT22;12364;47.810;8.810;2023-08-12T12:44:00;27.60;90.80
24232;DHT22;12364;47.810;8.810;2023-08-12T12:46:29;27.70;90.90
24232;DHT22;12364;47.810;8.810;2023-08-12T12:48:56;27.70;91.50
24232;DHT22;12364;47.810;8.810;2023-08-12T12:51:23;27.70;91.10
24232;DHT22;12364;47.810;8.810;2023-08-12T12:53:50;27.80;90.80
24232;DHT22;12364;47.810;8.810;2023-08-12T12:56:17;27.90;90.50
24232;DHT22;12364;47.810;8.810;2023-08-12T12:58:44;28.00;90.30
24232;DHT22;12364;47.810;8.810;2023-08-12T13:01:11;28.00;90.70
24232;DHT22;12364;47.810;8.810;2023-08-12T13:03:38;28.00;90.70
24232;DHT22;12364;47.810;8.810;2023-08-12T13:06:06;28.10;90.70
24232;DHT22;12364;47.810;8.810;2023-08-12T13:08:33;28.10;89.70
24232;DHT22;12364;47.810;8.810;2023-08-12T13:11:00;28.00;88.40
24232;DHT22;12364;47.810;8.810;2023-08-12T13:13:27;28.00;88.10
24232;DHT22;12364;47.810;8.810;2023-08-12T13:15:54;28.00;88.90
24232;DHT22;12364;47.810;8.810;2023-08-12T13:18:21;28.00;89.10
24232;DHT22;12364;47.810;8.810;2023-08-12T13:20:48;28.10;89.90
24232;DHT22;12364;47.810;8.810;2023-08-12T13:23:15;28.20;90.10
24232;DHT22;12364;47.810;8.810;2023-08-12T13:25:42;28.20;90.10
24232;DHT22;12364;47.810;8.810;2023-08-12T13:28:09;28.30;89.10
24232;DHT22;12364;47.810;8.810;2023-08-12T13:30:36;28.30;89.20
24232;DHT22;12364;47.810;8.810;2023-08-12T13:33:03;28.40;89.50
24232;DHT22;12364;47.810;8.810;2023-08-12T13:35:31;28.40;89.70
24232;DHT22;12364;47.810;8.810;2023-08-12T13:37:58;28.40;89.80
24232;DHT22;12364;47.810;8.810;2023-08-12T13:40:25;28.50;90.20
24232;DHT22;12364;47.810;8.810;2023-08-12T13:42:52;28.60;90.10
24232;DHT22;12364;47.810;8.810;2023-08-12T13:45:19;28.70;90.00
24232;DHT22;12364;47.810;8.810;2023-08-12T13:47:46;28.70;89.80
24232;DHT22;12364;47.810;8.810;2023-08-12T13:50:13;28.70;90.00
24232;DHT22;12364;47.810;8.810;2023-08-12T13:52:41;28.70;89.90
24232;DHT22;12364;47.810;8.810;2023-08-12T13:55:08;28.70;90.00
24232;DHT22;12364;47.810;8.810;2023-08-12T13:57:35;28.70;90.00
24232;DHT22;12364;47.810;8.810;2023-08-12T14:00:03;28.80;89.80
24232;DHT22;12364;47.810;8.810;2023-08-12T14:02:36;28.80;90.00
24232;DHT22;12364;47.810;8.810;2023-08-12T14:05:03;28.80;90.00
24232;DHT22;12364;47.810;8.810;2023-08-12T14:07:31;28.80;90.20
24232;DHT22;12364;47.810;8.810;2023-08-12T14:09:58;28.80;90.10
24232;DHT22;12364;47.810;8.810;2023-08-12T14:12:26;28.90;90.10
24232;DHT22;12364;47.810;8.810;2023-08-12T14:14:53;28.90;90.00
24232;DHT22;12364;47.810;8.810;2023-08-12T14:17:20;28.90;90.00
24232;DHT22;12364;47.810;8.810;2023-08-12T14:19:49;28.90;90.00
24232;DHT22;12364;47.810;8.810;2023-08-12T14:22:20;28.90;89.80
24232;DHT22;12364;47.810;8.810;2023-08-12T14:24:47;28.90;90.00
24232;DHT22;12364;47.810;8.810;2023-08-12T14:27:15;29.00;90.10
24232;DHT22;12364;47.810;8.810;2023-08-12T14:29:44;28.90;90.00
24232;DHT22;12364;47.810;8.810;2023-08-12T14:32:11;28.90;90.00
24232;DHT22;12364;47.810;8.810;2023-08-12T14:34:38;28.90;90.20
24232;DHT22;12364;47.810;8.810;2023-08-12T14:37:05;28.90;90.30
24232;DHT22;12364;47.810;8.810;2023-08-12T14:39:34;28.90;90.30
24232;DHT22;12364;47.810;8.810;2023-08-12T14:42:01;28.80;90.40
24232;DHT22;12364;47.810;8.810;2023-08-12T14:44:30;28.90;90.40
24232;DHT22;12364;47.810;8.810;2023-08-12T14:47:03;28.90;90.50
24232;DHT22;12364;47.810;8.810;2023-08-12T14:49:30;28.90;90.40
24232;DHT22;12364;47.810;8.810;2023-08-12T14:51:57;28.90;90.50
24232;DHT22;12364;47.810;8.810;2023-08-12T14:54:24;28.80;90.60
24232;DHT22;12364;47.810;8.810;2023-08-12T14:56:51;28.80;90.60
24232;DHT22;12364;47.810;8.810;2023-08-12T14:59:18;28.80;90.70
24232;DHT22;12364;47.810;8.810;2023-08-12T15:01:45;28.80;90.80
24232;DHT22;12364;47.810;8.810;2023-08-12T15:04:12;28.80;90.90
24232;DHT22;12364;47.810;8.810;2023-08-12T15:06:39;28.80;91.00
24232;DHT22;12364;47.810;8.810;2023-08-12T15:09:06;28.80;91.10
24232;DHT22;12364;47.810;8.810;2023-08-12T15:11:36;28.80;91.10
24232;DHT22;12364;47.810;8.810;2023-08-12T15:14:03;28.80;91.10
24232;DHT22;12364;47.810;8.810;2023-08-12T15:16:30;28.80;91.20
24232;DHT22;12364;47.810;8.810;2023-08-12T15:18:58;28.80;91.20
24232;DHT22;12364;47.810;8.810;2023-08-12T15:21:25;28.90;91.30
24232;DHT22;12364;47.810;8.810;2023-08-12T15:23:52;28.90;91.30
24232;DHT22;12364;47.810;8.810;2023-08-12T15:26:20;28.90;91.30
24232;DHT22;12364;47.810;8.810;2023-08-12T15:28:49;28.80;91.40
24232;DHT22;12364;47.810;8.810;2023-08-12T15:31:16;28.80;91.40
24232;DHT22;12364;47.810;8.810;2023-08-12T15:33:43;28.80;91.60
24232;DHT22;12364;47.810;8.810;2023-08-12T15:36:10;28.90;91.60
24232;DHT22;12364;47.810;8.810;2023-08-12T15:38:37;28.90;91.50
24232;DHT22;12364;47.810;8.810;2023-08-12T15:41:12;28.90;91.60
24232;DHT22;12364;47.810;8.810;2023-08-12T15:43:39;29.00;91.50
24232;DHT22;12364;47.810;8.810;2023-08-12T15:46:06;29.00;91.50
24232;DHT22;12364;47.810;8.810;2023-08-12T15:48:34;28.90;91.40
24232;DHT22;12364;47.810;8.810;2023-08-12T15:51:01;28.90;91.50
24232;DHT22;12364;47.810;8.810;2023-08-12T15:53:29;28.90;91.20
24232;DHT22;12364;47.810;8.810;2023-08-12T15:55:56;28.90;91.10
24232;DHT22;12364;47.810;8.810;2023-08-12T15:58:23;28.80;91.10
24232;DHT22;12364;47.810;8.810;2023-08-12T16:00:51;28.80;91.00
24232;DHT22;12364;47.810;8.810;2023-08-12T16:03:21;28.80;91.00
24232;DHT22;12364;47.810;8.810;2023-08-12T16:05:48;28.80;91.00
24232;DHT22;12364;47.810;8.810;2023-08-12T16:08:18;28.80;91.00
24232;DHT22;12364;47.810;8.810;2023-08-12T16:10:46;28.80;91.20
24232;DHT22;12364;47.810;8.810;2023-08-12T16:13:13;28.80;91.10
24232;DHT22;12364;47.810;8.810;2023-08-12T16:15:42;28.80;91.10
24232;DHT22;12364;47.810;8.810;2023-08-12T16:18:09;28.90;91.10
24232;DHT22;12364;47.810;8.810;2023-08-12T16:20:36;28.90;90.90
24232;DHT22;12364;47.810;8.810;2023-08-12T16:23:03;29.00;91.10
24232;DHT22;12364;47.810;8.810;2023-08-12T16:25:30;29.00;91.00
24232;DHT22;12364;47.810;8.810;2023-08-12T16:27:57;29.10;90.90
24232;DHT22;12364;47.810;8.810;2023-08-12T16:30:24;29.10;90.80
24232;DHT22;12364;47.810;8.810;2023-08-12T16:32:52;29.20;91.00
24232;DHT22;12364;47.810;8.810;2023-08-12T16:35:19;29.20;90.90
24232;DHT22;12364;47.810;8.810;2023-08-12T16:37:46;29.20;90.80
24232;DHT22;12364;47.810;8.810;2023-08-12T16:40:13;29.30;90.80
24232;DHT22;12364;47.810;8.810;2023-08-12T16:42:40;29.40;90.80
24232;DHT22;12364;47.810;8.810;2023-08-12T16:45:07;29.70;90.70
24232;DHT22;12364;47.810;8.810;2023-08-12T16:47:34;29.90;90.50
24232;DHT22;12364;47.810;8.810;2023-08-12T16:50:01;29.80;90.50
24232;DHT22;12364;47.810;8.810;2023-08-12T16:52:28;29.70;90.40
24232;DHT22;12364;47.810;8.810;2023-08-12T16:54:55;29.70;90.60
24232;DHT22;12364;47.810;8.810;2023-08-12T16:57:23;30.00;90.30
24232;DHT22;12364;47.810;8.810;2023-08-12T16:59:50;30.30;90.10
24232;DHT22;12364;47.810;8.810;2023-08-12T17:02:17;30.20;90.20
24232;DHT22;12364;47.810;8.810;2023-08-12T17:04:44;30.00;90.10
24232;DHT22;12364;47.810;8.810;2023-08-12T17:07:11;29.80;90.30
24232;DHT22;12364;47.810;8.810;2023-08-12T17:09:38;29.80;90.50
24232;DHT22;12364;47.810;8.810;2023-08-12T17:12:05;29.60;90.60
24232;DHT22;12364;47.810;8.810;2023-08-12T17:14:33;29.50;90.60
24232;DHT22;12364;47.810;8.810;2023-08-12T17:17:00;29.50;90.80
24232;DHT22;12364;47.810;8.810;2023-08-12T17:19:27;29.50;91.00
24232;DHT22;12364;47.810;8.810;2023-08-12T17:21:54;29.40;91.00
24232;DHT22;12364;47.810;8.810;2023-08-12T17:24:21;29.40;91.10
24232;DHT22;12364;47.810;8.810;2023-08-12T17:26:48;29.30;91.20
24232;DHT22;12364;47.810;8.810;2023-08-12T17:29:15;29.30;91.30
24232;DHT22;12364;47.810;8.810;2023-08-12T17:31:42;29.20;91.30
24232;DHT22;12364;47.810;8.810;2023-08-12T17:34:09;29.20;91.40
24232;DHT22;12364;47.810;8.810;2023-08-12T17:36:36;29.20;91.50
24232;DHT22;12364;47.810;8.810;2023-08-12T17:39:03;29.10;91.50
24232;DHT22;12364;47.810;8.810;2023-08-12T17:41:31;29.20;91.60
24232;DHT22;12364;47.810;8.810;2023-08-12T17:43:58;29.10;91.60
24232;DHT22;12364;47.810;8.810;2023-08-12T17:46:25;29.10;91.60
24232;DHT22;12364;47.810;8.810;2023-08-12T17:48:52;29.10;91.60
24232;DHT22;12364;47.810;8.810;2023-08-12T17:51:19;29.10;91.70
24232;DHT22;12364;47.810;8.810;2023-08-12T17:53:46;29.10;91.90
24232;DHT22;12364;47.810;8.810;2023-08-12T17:56:14;29.10;91.90
24232;DHT22;12364;47.810;8.810;2023-08-12T17:58:41;29.10;91.90
24232;DHT22;12364;47.810;8.810;2023-08-12T18:01:09;29.10;91.90
24232;DHT22;12364;47.810;8.810;2023-08-12T18:03:37;29.20;92.00
24232;DHT22;12364;47.810;8.810;2023-08-12T18:06:05;29.10;92.00
24232;DHT22;12364;47.810;8.810;2023-08-12T18:08:32;29.10;92.00
24232;DHT22;12364;47.810;8.810;2023-08-12T18:11:00;29.10;92.00
24232;DHT22;12364;47.810;8.810;2023-08-12T18:13:28;29.10;92.10
24232;DHT22;12364;47.810;8.810;2023-08-12T18:15:54;29.10;92.10
24232;DHT22;12364;47.810;8.810;2023-08-12T18:18:22;29.00;92.10
24232;DHT22;12364;47.810;8.810;2023-08-12T18:20:49;29.00;92.10
24232;DHT22;12364;47.810;8.810;2023-08-12T18:23:16;29.00;92.20
24232;DHT22;12364;47.810;8.810;2023-08-12T18:25:43;28.90;92.20
24232;DHT22;12364;47.810;8.810;2023-08-12T18:28:10;28.90;92.20
24232;DHT22;12364;47.810;8.810;2023-08-12T18:30:37;28.90;92.30
24232;DHT22;12364;47.810;8.810;2023-08-12T18:33:04;28.80;92.20
24232;DHT22;12364;47.810;8.810;2023-08-12T18:35:33;28.80;92.20
24232;DHT22;12364;47.810;8.810;2023-08-12T18:38:00;28.80;92.20
24232;DHT22;12364;47.810;8.810;2023-08-12T18:40:28;28.70;92.10
24232;DHT22;12364;47.810;8.810;2023-08-12T18:42:58;28.70;92.20
24232;DHT22;12364;47.810;8.810;2023-08-12T18:45:26;28.70;92.40
24232;DHT22;12364;47.810;8.810;2023-08-12T18:47:53;28.60;92.50
24232;DHT22;12364;47.810;8.810;2023-08-12T18:50:20;28.60;92.60
24232;DHT22;12364;47.810;8.810;2023-08-12T18:52:47;28.50;92.60
24232;DHT22;12364;47.810;8.810;2023-08-12T18:55:14;28.50;92.70
24232;DHT22;12364;47.810;8.810;2023-08-12T18:57:41;28.40;92.60
24232;DHT22;12364;47.810;8.810;2023-08-12T19:00:08;28.40;92.70
24232;DHT22;12364;47.810;8.810;2023-08-12T19:02:35;28.30;92.80
24232;DHT22;12364;47.810;8.810;2023-08-12T19:05:02;28.30;92.80
24232;DHT22;12364;47.810;8.810;2023-08-12T19:07:30;28.20;92.80
24232;DHT22;12364;47.810;8.810;2023-08-12T19:09:57;28.20;92.90
24232;DHT22;12364;47.810;8.810;2023-08-12T19:12:24;28.10;92.70
24232;DHT22;12364;47.810;8.810;2023-08-12T19:14:51;28.00;92.40
24232;DHT22;12364;47.810;8.810;2023-08-12T19:17:18;28.00;92.30
24232;DHT22;12364;47.810;8.810;2023-08-12T19:19:47;28.00;92.30
24232;DHT22;12364;47.810;8.810;2023-08-12T19:22:14;27.90;92.20
24232;DHT22;12364;47.810;8.810;2023-08-12T19:24:42;27.90;92.20
24232;DHT22;12364;47.810;8.810;2023-08-12T19:27:09;27.90;92.10
24232;DHT22;12364;47.810;8.810;2023-08-12T19:29:37;27.80;92.00
24232;DHT22;12364;47.810;8.810;2023-08-12T19:32:04;27.80;91.50
24232;DHT22;12364;47.810;8.810;2023-08-12T19:34:31;27.70;91.70
24232;DHT22;12364;47.810;8.810;2023-08-12T19:37:00;27.70;91.70
24232;DHT22;12364;47.810;8.810;2023-08-12T19:39:27;27.70;91.80
24232;DHT22;12364;47.810;8.810;2023-08-12T19:41:54;27.60;92.60
24232;DHT22;12364;47.810;8.810;2023-08-12T19:44:21;27.50;93.10
24232;DHT22;12364;47.810;8.810;2023-08-12T19:46:48;27.40;93.30
24232;DHT22;12364;47.810;8.810;2023-08-12T19:49:15;27.40;93.30
24232;DHT22;12364;47.810;8.810;2023-08-12T19:51:42;27.40;93.30
24232;DHT22;12364;47.810;8.810;2023-08-12T19:54:09;27.40;93.30
24232;DHT22;12364;47.810;8.810;2023-08-12T19:56:36;27.40;93.30
24232;DHT22;12364;47.810;8.810;2023-08-12T19:59:03;27.40;93.30
24232;DHT22;12364;47.810;8.810;2023-08-12T20:01:31;27.40;93.30
24232;DHT22;12364;47.810;8.810;2023-08-12T20:03:58;27.40;93.30
24232;DHT22;12364;47.810;8.810;2023-08-12T20:06:25;27.40;93.40
24232;DHT22;12364;47.810;8.810;2023-08-12T20:08:52;27.40;93.50
24232;DHT22;12364;47.810;8.810;2023-08-12T20:11:19;27.40;93.80
24232;DHT22;12364;47.810;8.810;2023-08-12T20:13:46;27.40;93.80
24232;DHT22;12364;47.810;8.810;2023-08-12T20:16:13;27.30;93.80